Terminal Aerodrome Forecast
Issued by NWS Wilmington, OH

Home | Current Version | Previous Version | Text Only | Print | Product List | Glossary On
Versions: 1 2 3 4 5 6 7 8 9 10 11 12 13 14 15 16 17 18 19 20 21 22 23 24 25 26
000
FTUS41 KILN 211400 AAA
TAFILN
TAF AMD
KILN 211458Z 2115/2212 27016G25KT P6SM FEW021 BKN035
     FM212000 28018G29KT P6SM BKN040
     FM220100 31014KT P6SM OVC022=

USA.gov is the U.S. government's official web portal to all federal, state and local government web resources and services.